createdAt,value
2018-06-04T00:05:23.346Z,29.27
2018-06-04T00:07:51.033Z,27.75
2018-06-04T00:10:18.451Z,29.10
2018-06-04T00:12:46.453Z,30.45
2018-06-04T00:15:14.618Z,31.25
2018-06-04T00:17:46.735Z,29.55
2018-06-04T00:20:16.280Z,27.60
2018-06-04T00:22:43.813Z,29.48
2018-06-04T00:34:56.641Z,27.27
2018-06-04T00:37:24.600Z,30.97
2018-06-04T00:39:57.454Z,34.70
2018-06-04T00:42:24.886Z,29.52
2018-06-04T00:54:37.819Z,32.42
2018-06-04T00:57:05.232Z,34.88
2018-06-04T01:09:18.915Z,37.50
2018-06-04T01:11:48.436Z,33.13
2018-06-04T01:14:15.793Z,32.25
2018-06-04T01:26:28.134Z,30.60
2018-06-04T01:28:56.139Z,35.70
2018-06-04T01:31:23.853Z,38.40
2018-06-04T01:33:51.279Z,37.58
2018-06-04T01:36:19.486Z,32.20
2018-06-04T01:38:47.523Z,36.23
2018-06-04T01:41:15.008Z,30.12
2018-06-04T01:43:42.921Z,35.60
2018-06-04T01:46:10.807Z,30.40
2018-06-04T01:48:38.682Z,31.37
2018-06-04T01:51:06.397Z,34.10
2018-06-04T01:53:40.366Z,27.27
2018-06-04T01:56:09.590Z,33.63
2018-06-04T01:58:41.983Z,29.07
2018-06-04T02:01:09.331Z,30.50
2018-06-04T02:03:36.724Z,35.30
2018-06-04T02:06:04.816Z,30.00
2018-06-04T02:08:33.664Z,31.85
2018-06-04T02:11:01.435Z,35.80
2018-06-04T02:13:28.826Z,34.18
2018-06-04T02:16:01.116Z,37.90
2018-06-04T02:18:33.669Z,34.18
2018-06-04T02:21:05.524Z,32.17
2018-06-04T02:23:33.298Z,34.78
2018-06-04T02:26:00.854Z,29.30
2018-06-04T02:28:28.445Z,35.23
2018-06-04T02:31:00.133Z,32.73
2018-06-04T02:33:28.958Z,34.90
2018-06-04T02:36:06.013Z,34.27
2018-06-04T02:38:38.453Z,30.25
2018-06-04T02:50:51.918Z,33.88
2018-06-04T02:53:19.848Z,36.90
2018-06-04T02:55:48.508Z,34.23
2018-06-04T02:58:15.872Z,32.20
2018-06-04T03:00:43.748Z,33.50
2018-06-04T03:03:11.164Z,37.23
2018-06-04T03:05:42.458Z,31.48
2018-06-04T03:08:10.694Z,33.70
2018-06-04T03:10:38.782Z,36.58
2018-06-04T03:13:06.197Z,31.97
2018-06-04T03:15:34.529Z,34.10
2018-06-04T03:18:02.468Z,35.73
2018-06-04T03:20:39.316Z,30.02
2018-06-04T03:32:52.765Z,34.78
2018-06-04T03:35:20.883Z,37.93
2018-06-04T03:37:48.272Z,34.78
2018-06-04T03:40:15.675Z,32.55
2018-06-04T03:42:43.093Z,35.68
2018-06-04T03:45:10.602Z,33.60
2018-06-04T03:47:38.218Z,31.60
2018-06-04T03:50:05.815Z,34.05
2018-06-04T03:52:37.257Z,34.63
2018-06-04T03:55:05.675Z,36.33
2018-06-04T03:57:33.039Z,32.88
2018-06-04T04:00:00.338Z,34.70
2018-06-04T04:02:32.503Z,33.95
2018-06-04T04:04:59.836Z,33.18
2018-06-04T04:07:27.224Z,33.67
2018-06-04T04:09:54.642Z,35.83
2018-06-04T04:12:23.263Z,34.55
2018-06-04T04:14:50.578Z,36.05
2018-06-04T04:17:20.384Z,35.90
2018-06-04T04:19:50.654Z,37.40
2018-06-04T04:22:19.571Z,40.83
2018-06-04T04:24:46.969Z,32.80
2018-06-04T04:27:14.595Z,32.23
2018-06-04T04:29:42.417Z,34.03
2018-06-04T04:32:10.373Z,35.83
2018-06-04T04:34:37.768Z,38.45
2018-06-04T04:37:07.032Z,34.05
2018-06-04T04:39:39.373Z,33.40
2018-06-04T04:42:09.217Z,31.82
2018-06-04T04:44:37.276Z,38.08
2018-06-04T04:47:06.117Z,34.73
2018-06-04T04:49:38.003Z,36.30
2018-06-04T04:52:05.389Z,33.20
2018-06-04T04:54:32.798Z,39.65
2018-06-04T04:57:00.270Z,36.03
2018-06-04T04:59:27.687Z,39.88
2018-06-04T05:01:55.542Z,41.50
2018-06-04T05:04:23.810Z,39.98
2018-06-04T05:06:51.640Z,39.85
2018-06-04T05:09:19.300Z,39.83
2018-06-04T05:11:46.800Z,39.08
2018-06-04T05:14:14.918Z,42.00
2018-06-04T05:16:42.219Z,40.33
2018-06-04T05:19:09.527Z,41.55
2018-06-04T05:21:36.832Z,46.35
2018-06-04T05:24:04.143Z,40.93
2018-06-04T05:26:31.480Z,42.35
2018-06-04T05:28:58.759Z,43.05
2018-06-04T05:31:26.046Z,42.67
2018-06-04T05:33:53.370Z,43.07
2018-06-04T05:36:20.860Z,46.27
2018-06-04T05:38:48.174Z,46.27
2018-06-04T05:41:15.478Z,42.37
2018-06-04T05:43:42.783Z,42.97
2018-06-04T05:46:10.068Z,48.50
2018-06-04T05:48:37.368Z,43.03
2018-06-04T05:51:04.682Z,48.83
2018-06-04T05:53:31.978Z,41.30
2018-06-04T05:55:59.524Z,44.70
2018-06-04T05:58:26.897Z,42.30
2018-06-04T06:00:54.198Z,41.07
2018-06-04T06:03:21.653Z,42.30
2018-06-04T06:05:49.010Z,43.17
2018-06-04T06:08:16.333Z,46.27
2018-06-04T06:10:43.618Z,40.93
2018-06-04T06:13:11.019Z,40.97
2018-06-04T06:15:38.329Z,43.20
2018-06-04T06:18:05.634Z,41.43
2018-06-04T06:20:32.960Z,39.60
2018-06-04T06:23:00.234Z,42.00
2018-06-04T06:25:27.551Z,38.47
2018-06-04T06:27:54.830Z,37.47
2018-06-04T06:30:22.138Z,38.10
2018-06-04T06:32:49.452Z,35.73
2018-06-04T06:35:16.744Z,33.63
2018-06-04T06:37:44.065Z,36.43
2018-06-04T06:40:11.361Z,34.13
2018-06-04T06:42:38.657Z,34.13
2018-06-04T06:45:05.947Z,35.17
2018-06-04T06:47:33.287Z,36.10
2018-06-04T06:50:00.670Z,36.33
2018-06-04T06:52:28.211Z,34.97
2018-06-04T06:54:55.502Z,38.83
2018-06-04T06:57:22.786Z,40.10
2018-06-04T06:59:50.088Z,34.83
2018-06-04T07:02:17.405Z,39.07
2018-06-04T07:04:44.699Z,37.40
2018-06-04T07:07:12.005Z,38.33
2018-06-04T07:09:39.342Z,36.37
2018-06-04T07:12:06.654Z,35.70
2018-06-04T07:14:33.970Z,35.47
2018-06-04T07:17:01.210Z,39.67
2018-06-04T07:19:28.936Z,37.17
2018-06-04T07:21:56.258Z,40.63
2018-06-04T07:24:23.539Z,36.20
2018-06-04T07:26:50.965Z,37.47
2018-06-04T07:29:18.231Z,36.90
2018-06-04T07:31:45.547Z,35.97
2018-06-04T07:34:12.798Z,33.83
2018-06-04T07:36:40.089Z,35.43
2018-06-04T07:39:07.897Z,37.57
2018-06-04T07:41:35.187Z,34.47
2018-06-04T07:44:02.527Z,34.00
2018-06-04T07:46:29.802Z,31.77
2018-06-04T07:48:57.202Z,33.47
2018-06-04T07:51:24.487Z,33.80
2018-06-04T07:53:51.791Z,36.70
2018-06-04T07:56:19.115Z,35.20
2018-06-04T07:58:46.434Z,34.77
2018-06-04T08:01:13.739Z,36.07
2018-06-04T08:03:41.036Z,36.60
2018-06-04T08:06:08.381Z,33.60
2018-06-04T08:08:35.624Z,33.00
2018-06-04T08:11:02.964Z,33.07
2018-06-04T08:13:30.224Z,34.87
2018-06-04T08:15:57.515Z,32.27
2018-06-04T08:18:24.810Z,31.80
2018-06-04T08:20:52.115Z,34.17
2018-06-04T08:23:19.446Z,32.60
2018-06-04T08:25:46.675Z,34.17
2018-06-04T08:28:13.943Z,32.23
2018-06-04T08:30:41.259Z,32.10
2018-06-04T08:33:08.543Z,29.77
2018-06-04T08:35:35.990Z,29.03
2018-06-04T08:38:03.964Z,31.70
2018-06-04T08:40:35.075Z,31.73
2018-06-04T08:43:02.734Z,33.43
2018-06-04T08:45:30.466Z,33.90
2018-06-04T08:47:57.851Z,31.47
2018-06-04T08:50:26.020Z,30.50
2018-06-04T08:52:53.405Z,31.53
2018-06-04T08:55:20.697Z,30.10
2018-06-04T08:57:49.988Z,29.90
2018-06-04T09:00:19.603Z,31.03
2018-06-04T09:02:47.279Z,31.23
2018-06-04T09:05:15.415Z,31.87
2018-06-04T09:07:43.517Z,27.07
2018-06-04T09:10:12.459Z,29.20
2018-06-04T09:12:40.110Z,31.60
2018-06-04T09:15:08.506Z,29.30
2018-06-04T09:17:35.793Z,30.00
2018-06-04T09:20:03.172Z,29.70
2018-06-04T09:22:30.423Z,31.37
2018-06-04T09:24:57.709Z,30.57
2018-06-04T09:27:27.450Z,29.17
2018-06-04T09:29:55.998Z,29.80
2018-06-04T09:32:23.976Z,30.90
2018-06-04T09:34:52.154Z,30.60
2018-06-04T09:37:20.231Z,28.93
2018-06-04T09:39:48.182Z,30.30
2018-06-04T09:42:15.463Z,34.70
2018-06-04T09:44:43.495Z,29.10
2018-06-04T09:47:10.783Z,28.33
2018-06-04T09:49:39.758Z,29.00
2018-06-04T09:52:07.047Z,28.90
2018-06-04T09:54:34.322Z,29.80
2018-06-04T09:57:01.622Z,27.20
2018-06-04T09:59:31.335Z,29.10
2018-06-04T10:01:59.208Z,26.50
2018-06-04T10:04:29.781Z,25.73
2018-06-04T10:07:01.990Z,25.13
2018-06-04T10:09:31.457Z,23.10
2018-06-04T10:11:58.912Z,24.83
2018-06-04T10:14:27.543Z,23.40
2018-06-04T10:16:58.036Z,22.50
2018-06-04T10:19:26.091Z,22.00
2018-06-04T10:21:56.487Z,22.53
2018-06-04T10:24:26.916Z,22.17
2018-06-04T10:27:00.642Z,23.90
2018-06-04T10:29:33.309Z,24.97
2018-06-04T10:32:03.375Z,27.50
2018-06-04T10:34:35.748Z,26.27
2018-06-04T10:46:48.507Z,30.17
2018-06-04T10:49:15.902Z,32.23
2018-06-04T10:51:44.303Z,31.50
2018-06-04T10:54:13.832Z,33.00
2018-06-04T10:56:41.199Z,30.13
2018-06-04T10:59:12.667Z,33.20
2018-06-04T11:01:40.620Z,30.97
2018-06-04T11:04:08.073Z,29.93
2018-06-04T11:06:35.486Z,28.30
2018-06-04T11:09:07.667Z,30.80
2018-06-04T11:11:35.113Z,33.87
2018-06-04T11:14:02.507Z,30.60
2018-06-04T11:16:30.394Z,29.37
2018-06-04T11:18:57.829Z,31.50
2018-06-04T11:21:25.109Z,28.07
2018-06-04T11:23:52.477Z,26.60
2018-06-04T11:26:19.780Z,26.53
2018-06-04T11:28:47.200Z,26.60
2018-06-04T11:31:14.545Z,28.67
2018-06-04T11:33:41.999Z,27.30
2018-06-04T11:36:10.198Z,27.70
2018-06-04T11:38:37.691Z,28.20
2018-06-04T11:41:05.768Z,27.20
2018-06-04T11:43:33.196Z,25.80
2018-06-04T11:46:00.978Z,23.77
2018-06-04T11:48:28.605Z,25.40
2018-06-04T11:50:57.753Z,24.67
2018-06-04T11:53:25.241Z,26.03
2018-06-04T11:55:52.777Z,24.40
2018-06-04T11:58:20.172Z,24.30
2018-06-04T12:00:47.724Z,24.90
2018-06-04T12:03:19.182Z,23.90
2018-06-04T12:05:47.032Z,25.37
2018-06-04T12:08:14.339Z,27.93
2018-06-04T12:10:42.534Z,26.13
2018-06-04T12:13:09.832Z,24.03
2018-06-04T12:15:42.185Z,24.50
2018-06-04T12:18:09.678Z,25.23
2018-06-04T12:20:37.018Z,25.17
2018-06-04T12:23:04.311Z,26.17
2018-06-04T12:25:31.663Z,26.17
2018-06-04T12:27:59.691Z,26.37
2018-06-04T12:30:27.123Z,26.43
2018-06-04T12:32:54.662Z,30.77
2018-06-04T12:35:21.985Z,29.30
2018-06-04T12:37:49.270Z,31.80
2018-06-04T12:40:16.681Z,31.80
2018-06-04T12:42:43.981Z,30.70
2018-06-04T12:45:11.322Z,28.47
2018-06-04T12:47:38.648Z,31.60
2018-06-04T12:50:05.993Z,31.20
2018-06-04T12:52:33.295Z,31.07
2018-06-04T12:55:00.612Z,30.90
2018-06-04T12:57:27.916Z,31.17
2018-06-04T12:59:55.235Z,35.10
2018-06-04T13:02:22.604Z,34.27
2018-06-04T13:04:49.970Z,34.30
2018-06-04T13:07:17.261Z,33.97
2018-06-04T13:09:44.546Z,37.80
2018-06-04T13:14:45.484Z,33.50
2018-06-04T13:17:12.937Z,39.57
2018-06-04T13:19:40.246Z,38.13
2018-06-04T13:22:07.558Z,37.03
2018-06-04T13:24:34.879Z,36.60
2018-06-04T13:27:02.247Z,38.90
2018-06-04T13:29:29.553Z,37.60
2018-06-04T13:31:56.952Z,41.50
2018-06-04T13:34:24.261Z,39.80
2018-06-04T13:36:51.582Z,39.00
2018-06-04T13:39:19.089Z,40.07
2018-06-04T13:41:46.454Z,38.77
2018-06-04T13:44:13.749Z,36.30
2018-06-04T13:46:41.008Z,39.23
2018-06-04T13:49:08.295Z,36.73
2018-06-04T13:51:35.622Z,34.43
2018-06-04T13:54:03.344Z,34.23
2018-06-04T13:56:30.651Z,35.20
2018-06-04T13:58:58.003Z,33.07
2018-06-04T14:01:25.306Z,32.40
2018-06-04T14:03:52.623Z,37.83
2018-06-04T14:06:19.926Z,32.20
2018-06-04T14:08:47.235Z,32.90
2018-06-04T14:11:14.531Z,32.53
2018-06-04T14:13:41.852Z,31.70
2018-06-04T14:16:09.186Z,33.33
2018-06-04T14:18:36.542Z,32.23
2018-06-04T14:21:04.062Z,33.07
2018-06-04T14:23:31.388Z,30.47
2018-06-04T14:25:58.769Z,32.67
2018-06-04T14:28:26.050Z,32.40
2018-06-04T14:30:53.360Z,30.90
2018-06-04T14:33:20.689Z,32.97
2018-06-04T14:35:48.078Z,33.60
2018-06-04T14:38:15.383Z,34.20
2018-06-04T14:40:42.931Z,32.27
2018-06-04T14:43:10.314Z,34.30
2018-06-04T14:45:37.672Z,33.90
2018-06-04T14:48:05.272Z,32.63
2018-06-04T14:50:33.650Z,32.30
2018-06-04T14:53:00.973Z,30.40
2018-06-04T14:55:28.449Z,31.20
2018-06-04T14:57:55.781Z,31.80
2018-06-04T15:00:23.102Z,29.27
2018-06-04T15:02:50.460Z,31.50
2018-06-04T15:05:17.805Z,31.03
2018-06-04T15:07:45.172Z,34.40
2018-06-04T15:10:12.515Z,30.73
2018-06-04T15:12:39.883Z,29.63
2018-06-04T15:15:07.359Z,32.43
2018-06-04T15:17:34.912Z,29.57
2018-06-04T15:20:02.320Z,30.60
2018-06-04T15:22:29.653Z,30.53
2018-06-04T15:24:56.975Z,29.30
2018-06-04T15:27:24.352Z,28.10
2018-06-04T15:29:51.726Z,30.93
2018-06-04T15:32:19.167Z,29.60
2018-06-04T15:34:46.451Z,30.03
2018-06-04T15:37:13.730Z,27.07
2018-06-04T15:39:41.105Z,27.50
2018-06-04T15:42:08.430Z,31.90
2018-06-04T15:44:35.813Z,30.87
2018-06-04T15:47:03.234Z,32.03
2018-06-04T15:49:30.594Z,30.07
2018-06-04T15:51:57.891Z,30.53
2018-06-04T15:54:25.192Z,32.93
2018-06-04T15:56:52.515Z,30.87
2018-06-04T15:59:19.917Z,31.30
2018-06-04T16:01:47.224Z,31.53
2018-06-04T16:04:14.597Z,32.33
2018-06-04T16:06:41.905Z,32.00
2018-06-04T16:09:09.322Z,30.97
2018-06-04T16:11:36.671Z,30.87
2018-06-04T16:14:04.066Z,29.67
2018-06-04T16:16:31.383Z,28.10
2018-06-04T16:18:58.753Z,30.97
2018-06-04T16:21:26.079Z,26.57
2018-06-04T16:23:53.395Z,26.50
2018-06-04T16:26:20.712Z,28.43
2018-06-04T16:28:48.201Z,26.23
2018-06-04T16:31:15.807Z,25.80
2018-06-04T16:33:43.102Z,26.53
2018-06-04T16:36:10.449Z,25.90
2018-06-04T16:38:37.809Z,27.10
2018-06-04T16:41:05.178Z,24.87
2018-06-04T16:43:32.567Z,25.77
2018-06-04T16:45:59.931Z,24.90
2018-06-04T16:48:27.234Z,25.60
2018-06-04T16:50:54.582Z,25.93
2018-06-04T16:53:21.943Z,25.83
2018-06-04T16:55:49.308Z,26.50
2018-06-04T16:58:17.704Z,23.80
2018-06-04T17:00:46.276Z,25.20
2018-06-04T17:03:13.629Z,26.20
2018-06-04T17:05:46.297Z,27.87
2018-06-04T17:08:14.385Z,28.07
2018-06-04T17:10:41.989Z,25.17
2018-06-04T17:13:09.383Z,29.40
2018-06-04T17:15:36.856Z,26.53
2018-06-04T17:18:04.862Z,26.70
2018-06-04T17:20:33.344Z,27.47
2018-06-04T17:23:00.965Z,28.57
2018-06-04T17:25:28.325Z,28.10
2018-06-04T17:27:56.677Z,31.20
2018-06-04T17:30:28.939Z,31.10
2018-06-04T17:42:47.841Z,31.87
2018-06-04T17:45:15.248Z,30.77
2018-06-04T17:47:42.657Z,29.87
2018-06-04T17:50:10.149Z,29.43
2018-06-04T17:52:38.937Z,27.97
2018-06-04T17:55:06.506Z,33.27
2018-06-04T17:57:34.515Z,28.57
2018-06-04T18:00:02.020Z,29.67
2018-06-04T18:02:29.394Z,31.60
2018-06-04T18:04:57.325Z,29.43
2018-06-04T18:07:24.830Z,29.10
2018-06-04T18:09:52.271Z,28.07
2018-06-04T18:12:19.765Z,29.77
2018-06-04T18:14:51.899Z,33.90
2018-06-04T18:17:19.383Z,28.77
2018-06-04T18:19:47.780Z,27.87
2018-06-04T18:22:16.448Z,27.70
2018-06-04T18:24:43.931Z,30.43
2018-06-04T18:27:16.319Z,27.50
2018-06-04T18:29:45.026Z,28.20
2018-06-04T18:32:12.537Z,27.00
2018-06-04T18:34:39.959Z,30.57
2018-06-04T18:37:12.113Z,27.60
2018-06-04T18:39:39.646Z,31.20
2018-06-04T18:42:11.385Z,28.37
2018-06-04T18:44:40.397Z,30.17
2018-06-04T18:47:12.661Z,29.07
2018-06-04T18:49:40.428Z,29.30
2018-06-04T18:52:08.080Z,27.80
2018-06-04T18:54:35.538Z,29.20
2018-06-04T18:57:03.056Z,29.63
2018-06-04T18:59:31.891Z,30.67
2018-06-04T19:02:00.000Z,28.00
2018-06-04T19:04:29.089Z,28.93
2018-06-04T19:07:00.412Z,27.43
2018-06-04T19:09:28.490Z,28.47
2018-06-04T19:11:57.322Z,27.03
2018-06-04T19:14:25.290Z,26.50
2018-06-04T19:16:52.884Z,27.20
2018-06-04T19:19:21.014Z,25.17
2018-06-04T19:21:57.724Z,27.60
2018-06-04T19:24:25.770Z,29.07
2018-06-04T19:26:53.382Z,27.53
2018-06-04T19:29:21.664Z,27.07
2018-06-04T19:31:49.250Z,29.20
2018-06-04T19:34:17.560Z,26.60
2018-06-04T19:36:47.832Z,33.67
2018-06-04T19:39:20.759Z,28.90
2018-06-04T19:51:34.986Z,31.70
2018-06-04T19:54:03.055Z,32.03
2018-06-04T19:56:30.812Z,30.00
2018-06-04T19:58:58.240Z,30.87
2018-06-04T20:01:25.721Z,30.43
2018-06-04T20:03:53.218Z,31.33
2018-06-04T20:06:21.741Z,30.35
2018-06-04T20:08:49.396Z,32.20
2018-06-04T20:11:17.049Z,31.93
2018-06-04T20:13:44.767Z,33.73
2018-06-04T20:16:12.565Z,32.65
2018-06-04T20:18:41.775Z,32.45
2018-06-04T20:21:16.673Z,33.13
2018-06-04T20:23:44.414Z,30.23
2018-06-04T20:39:16.164Z,35.60
2018-06-04T20:41:44.016Z,41.13
2018-06-04T20:53:57.222Z,88.70
2018-06-04T20:56:29.448Z,71.97
2018-06-04T20:58:57.542Z,68.83
2018-06-04T21:01:25.810Z,40.03
2018-06-04T21:03:53.379Z,38.60
2018-06-04T21:06:21.300Z,36.03
2018-06-04T21:08:48.706Z,36.83
2018-06-04T21:11:17.084Z,38.90
2018-06-04T21:13:45.684Z,37.60
2018-06-04T21:16:13.651Z,39.05
2018-06-04T21:18:41.692Z,37.80
2018-06-04T21:21:09.170Z,39.63
2018-06-04T21:23:40.512Z,40.23
2018-06-04T21:26:07.922Z,36.98
2018-06-04T21:28:35.355Z,40.70
2018-06-04T21:31:03.483Z,38.63
2018-06-04T21:33:30.922Z,39.40
2018-06-04T21:36:02.988Z,40.08
2018-06-04T21:38:31.096Z,40.92
2018-06-04T21:40:59.161Z,42.50
2018-06-04T21:43:27.918Z,47.33
2018-06-04T21:45:56.069Z,39.33
2018-06-04T21:48:23.549Z,43.20
2018-06-04T21:50:51.634Z,42.38
2018-06-04T21:53:19.410Z,40.43
2018-06-04T21:55:47.674Z,39.42
2018-06-04T21:58:15.168Z,40.17
2018-06-04T22:00:43.070Z,44.00
2018-06-04T22:03:11.296Z,44.53
2018-06-04T22:05:39.748Z,39.25
2018-06-04T22:08:07.734Z,41.68
2018-06-04T22:10:40.573Z,39.45
2018-06-04T22:13:12.528Z,37.67
2018-06-04T22:15:39.980Z,43.05
2018-06-04T22:18:07.806Z,38.65
2018-06-04T22:20:35.650Z,39.25
2018-06-04T22:23:03.694Z,40.58
2018-06-04T22:38:31.490Z,42.80
2018-06-04T22:40:58.892Z,40.20
2018-06-04T22:43:27.247Z,49.67
2018-06-04T22:46:04.820Z,45.52
2018-06-04T22:48:32.229Z,42.25
2018-06-04T22:50:59.947Z,38.92
2018-06-04T22:53:27.372Z,44.88
2018-06-04T22:55:54.786Z,41.33
2018-06-04T22:58:23.262Z,46.83
2018-06-04T23:00:50.714Z,44.73
2018-06-04T23:03:18.884Z,44.83
2018-06-04T23:05:53.530Z,43.20
2018-06-04T23:08:27.484Z,46.23
2018-06-04T23:10:55.558Z,46.75
2018-06-04T23:13:22.946Z,47.95
2018-06-04T23:15:50.366Z,45.05
2018-06-04T23:18:18.675Z,49.85
2018-06-04T23:20:46.490Z,47.20
2018-06-04T23:32:59.919Z,46.88
2018-06-04T23:35:27.307Z,47.33
2018-06-04T23:37:54.997Z,48.00
2018-06-04T23:40:23.106Z,46.85
2018-06-04T23:42:53.686Z,49.27
2018-06-04T23:45:21.080Z,43.85
2018-06-04T23:47:50.435Z,45.40
2018-06-04T23:50:18.562Z,47.93
2018-06-04T23:52:46.734Z,46.18
2018-06-04T23:55:15.560Z,48.40
2018-06-04T23:57:46.931Z,47.98
